createdAt,value
2023-05-10T00:02:14.960Z,96.03
2023-05-10T00:04:42.693Z,96.23
2023-05-10T00:07:11.380Z,93.70
2023-05-10T00:09:38.918Z,94.59
2023-05-10T00:12:06.894Z,96.65
2023-05-10T00:14:34.562Z,98.05
2023-05-10T00:17:02.442Z,97.40
2023-05-10T00:19:30.167Z,98.89
2023-05-10T00:21:57.849Z,99.62
2023-05-10T00:24:26.183Z,99.05
2023-05-10T00:26:53.702Z,97.77
2023-05-10T00:29:21.498Z,98.35
2023-05-10T00:31:49.310Z,99.11
2023-05-10T00:34:16.966Z,97.25
2023-05-10T00:36:44.551Z,98.74
2023-05-10T00:39:12.280Z,99.49
2023-05-10T00:41:40.187Z,100.00
2023-05-10T00:44:08.391Z,100.00
2023-05-10T00:46:37.201Z,100.00
2023-05-10T00:49:05.421Z,100.00
2023-05-10T00:51:33.863Z,100.00
2023-05-10T00:54:01.675Z,100.00
2023-05-10T00:56:30.779Z,100.00
2023-05-10T00:58:58.880Z,100.00
2023-05-10T01:01:26.868Z,100.00
2023-05-10T01:03:55.526Z,100.00
2023-05-10T01:06:23.312Z,100.00
2023-05-10T01:08:51.737Z,100.00
2023-05-10T01:11:19.437Z,100.00
2023-05-10T01:13:57.016Z,100.00
2023-05-10T01:16:26.432Z,100.00
2023-05-10T01:18:55.005Z,100.00
2023-05-10T01:22:02.812Z,100.00
2023-05-10T01:25:05.130Z,100.00
2023-05-10T01:28:00.129Z,100.00
2023-05-10T01:30:52.314Z,100.00
2023-05-10T01:33:37.224Z,100.00
2023-05-10T01:36:19.157Z,99.91
2023-05-10T01:39:11.867Z,98.49
2023-05-10T01:41:45.064Z,98.24
2023-05-10T01:44:25.863Z,98.55
2023-05-10T01:47:18.570Z,100.00
2023-05-10T01:49:53.452Z,100.00
2023-05-10T01:52:28.327Z,100.00
2023-05-10T01:55:08.857Z,100.00
2023-05-10T01:57:40.725Z,100.00
2023-05-10T02:00:10.556Z,100.00
2023-05-10T02:02:51.557Z,100.00
2023-05-10T02:05:21.689Z,100.00
2023-05-10T02:07:50.490Z,100.00
2023-05-10T02:10:22.251Z,100.00
2023-05-10T02:12:51.893Z,100.00
2023-05-10T02:15:25.833Z,100.00
2023-05-10T02:17:56.805Z,100.00
2023-05-10T02:20:28.973Z,100.00
2023-05-10T02:22:58.848Z,98.83
2023-05-10T02:25:27.861Z,97.38
2023-05-10T02:27:58.073Z,97.50
2023-05-10T02:30:30.401Z,96.63
2023-05-10T02:35:29.333Z,96.69
2023-05-10T02:38:00.008Z,97.08
2023-05-10T02:40:31.622Z,97.46
2023-05-10T02:43:01.230Z,96.53
2023-05-10T02:45:33.118Z,96.02
2023-05-10T02:48:01.706Z,96.25
2023-05-10T02:50:35.228Z,95.75
2023-05-10T02:53:13.233Z,95.29
2023-05-10T02:55:44.043Z,95.68
2023-05-10T02:58:11.805Z,94.53
2023-05-10T03:00:39.539Z,94.88
2023-05-10T03:03:07.915Z,95.09
2023-05-10T03:05:35.616Z,94.82
2023-05-10T03:08:05.816Z,95.35
2023-05-10T03:10:40.390Z,95.15
2023-05-10T03:13:14.349Z,95.41
2023-05-10T03:16:13.651Z,95.18
2023-05-10T03:18:52.136Z,95.14
2023-05-10T03:21:22.960Z,96.21
2023-05-10T03:24:13.058Z,98.33
2023-05-10T03:26:42.648Z,100.00
2023-05-10T03:29:16.813Z,99.33
2023-05-10T03:31:44.966Z,100.00
2023-05-10T03:34:12.955Z,99.26
2023-05-10T03:36:40.504Z,97.75
2023-05-10T03:39:08.055Z,96.99
2023-05-10T03:41:35.717Z,96.83
2023-05-10T03:44:03.446Z,95.11
2023-05-10T03:46:31.201Z,95.81
2023-05-10T03:48:59.305Z,96.17
2023-05-10T03:51:29.285Z,96.32
2023-05-10T03:53:56.869Z,96.68
2023-05-10T03:56:24.796Z,96.36
2023-05-10T03:58:52.719Z,96.13
2023-05-10T04:01:20.312Z,95.61
2023-05-10T04:03:48.198Z,94.20
2023-05-10T04:06:16.253Z,94.89
2023-05-10T04:08:43.862Z,94.68
2023-05-10T04:11:14.787Z,94.40
2023-05-10T04:13:42.468Z,94.37
2023-05-10T04:16:10.327Z,92.75
2023-05-10T04:18:37.984Z,92.06
2023-05-10T04:21:06.509Z,91.72
2023-05-10T04:23:34.162Z,91.77
2023-05-10T04:26:03.044Z,89.28
2023-05-10T04:28:30.719Z,89.81
2023-05-10T04:31:11.014Z,89.46
2023-05-10T04:33:39.255Z,89.32
2023-05-10T04:36:07.583Z,88.01
2023-05-10T04:38:35.340Z,88.36
2023-05-10T04:41:10.512Z,87.62
2023-05-10T04:43:39.345Z,87.53
2023-05-10T04:46:08.576Z,86.96
2023-05-10T04:48:36.263Z,86.00
2023-05-10T04:51:05.105Z,82.74
2023-05-10T04:53:33.158Z,82.44
2023-05-10T04:56:00.741Z,82.39
2023-05-10T04:58:28.304Z,81.91
2023-05-10T05:00:55.933Z,80.55
2023-05-10T05:03:23.609Z,80.80
2023-05-10T05:05:51.283Z,80.84
2023-05-10T05:08:18.813Z,79.40
2023-05-10T05:10:46.436Z,79.78
2023-05-10T05:13:14.672Z,80.07
2023-05-10T05:15:42.346Z,79.76
2023-05-10T05:18:09.897Z,80.47
2023-05-10T05:20:37.471Z,80.98
2023-05-10T05:23:05.079Z,81.87
2023-05-10T05:25:35.813Z,80.38
2023-05-10T05:28:03.418Z,78.88
2023-05-10T05:30:30.982Z,79.59
2023-05-10T05:32:58.539Z,77.52
2023-05-10T05:35:26.390Z,78.75
2023-05-10T05:37:53.876Z,77.52
2023-05-10T05:40:21.568Z,76.65
2023-05-10T05:42:49.218Z,78.29
2023-05-10T05:45:17.084Z,77.96
2023-05-10T05:47:44.964Z,77.17
2023-05-10T05:50:12.859Z,78.00
2023-05-10T05:52:40.610Z,78.92
2023-05-10T05:55:08.475Z,80.60
2023-05-10T05:57:36.084Z,80.68
2023-05-10T06:00:04.195Z,78.02
2023-05-10T06:02:43.007Z,78.30
2023-05-10T06:05:10.796Z,77.49
2023-05-10T06:07:38.397Z,77.91
2023-05-10T06:10:06.883Z,78.94
2023-05-10T06:12:34.434Z,77.85
2023-05-10T06:15:02.044Z,77.88
2023-05-10T06:17:29.856Z,77.63
2023-05-10T06:19:58.099Z,77.70
2023-05-10T06:22:25.684Z,77.42
2023-05-10T06:24:53.138Z,77.13
2023-05-10T06:27:20.757Z,73.73
2023-05-10T06:29:49.249Z,74.50
2023-05-10T06:32:18.454Z,73.35
2023-05-10T06:34:46.096Z,74.05
2023-05-10T06:37:13.845Z,74.48
2023-05-10T06:39:41.458Z,74.61
2023-05-10T06:42:08.985Z,74.56
2023-05-10T06:44:36.634Z,74.24
2023-05-10T06:47:04.227Z,73.36
2023-05-10T06:49:31.951Z,72.65
2023-05-10T06:51:59.532Z,72.90
2023-05-10T06:54:27.070Z,74.47
2023-05-10T06:56:55.042Z,73.33
2023-05-10T06:59:23.677Z,74.55
2023-05-10T07:01:51.512Z,73.71
2023-05-10T07:04:19.155Z,72.75
2023-05-10T07:06:47.461Z,72.44
2023-05-10T07:09:15.133Z,76.30
2023-05-10T07:11:42.661Z,73.98
2023-05-10T07:14:10.696Z,73.05
2023-05-10T07:16:38.319Z,72.88
2023-05-10T07:19:07.648Z,72.16
2023-05-10T07:21:36.631Z,73.58
2023-05-10T07:24:04.596Z,74.03
2023-05-10T07:26:32.158Z,72.00
2023-05-10T07:28:59.764Z,71.42
2023-05-10T07:31:27.334Z,72.66
2023-05-10T07:33:55.118Z,68.96
2023-05-10T07:36:22.612Z,69.31
2023-05-10T07:38:50.635Z,70.04
2023-05-10T07:41:18.436Z,71.16
2023-05-10T07:43:45.946Z,71.42
2023-05-10T07:46:14.530Z,70.18
2023-05-10T07:48:42.470Z,71.65
2023-05-10T07:51:10.530Z,71.32
2023-05-10T07:53:38.501Z,70.93
2023-05-10T07:56:30.651Z,69.22
2023-05-10T07:58:58.906Z,67.46
2023-05-10T08:01:27.749Z,67.87
2023-05-10T08:03:55.993Z,69.47
2023-05-10T08:06:23.623Z,68.38
2023-05-10T08:08:51.781Z,68.06
2023-05-10T08:11:21.558Z,64.22
2023-05-10T08:13:50.606Z,65.23
2023-05-10T08:16:18.985Z,66.44
2023-05-10T08:18:48.321Z,67.20
2023-05-10T08:21:16.958Z,62.36
2023-05-10T08:23:47.304Z,61.76
2023-05-10T08:26:14.936Z,60.91
2023-05-10T08:28:42.494Z,62.28
2023-05-10T08:31:10.185Z,61.65
2023-05-10T08:33:37.972Z,60.78
2023-05-10T08:36:06.188Z,61.64
2023-05-10T08:38:33.807Z,58.19
2023-05-10T08:41:03.826Z,58.97
2023-05-10T08:43:32.265Z,59.73
2023-05-10T08:46:04.138Z,62.44
2023-05-10T08:48:32.277Z,59.38
2023-05-10T08:51:03.060Z,56.25
2023-05-10T08:53:32.866Z,61.42
2023-05-10T08:56:02.805Z,61.06
2023-05-10T08:58:30.713Z,60.77
2023-05-10T09:00:59.684Z,60.03
2023-05-10T09:03:27.543Z,59.70
2023-05-10T09:05:56.918Z,58.61
2023-05-10T09:08:28.428Z,57.77
2023-05-10T09:10:59.145Z,54.28
2023-05-10T09:13:27.234Z,57.33
2023-05-10T09:15:54.924Z,52.61
2023-05-10T09:18:22.561Z,56.85
2023-05-10T09:20:51.028Z,55.41
2023-05-10T09:23:18.565Z,56.86
2023-05-10T09:25:46.180Z,56.51
2023-05-10T09:28:13.971Z,55.56
2023-05-10T09:30:41.559Z,54.27
2023-05-10T09:33:09.034Z,53.16
2023-05-10T09:35:37.145Z,53.75
2023-05-10T09:38:06.510Z,53.24
2023-05-10T09:40:34.005Z,53.05
2023-05-10T09:43:11.855Z,53.11
2023-05-10T09:45:39.569Z,52.51
2023-05-10T09:48:07.782Z,52.11
2023-05-10T09:50:35.619Z,51.07
2023-05-10T09:53:05.209Z,53.95
2023-05-10T09:55:46.006Z,51.70
2023-05-10T09:58:17.345Z,48.52
2023-05-10T10:00:48.884Z,51.47
2023-05-10T10:03:19.790Z,53.54
2023-05-10T10:05:49.930Z,52.72
2023-05-10T10:08:18.229Z,53.39
2023-05-10T10:10:47.125Z,52.60
2023-05-10T10:13:15.185Z,53.44
2023-05-10T10:15:45.710Z,52.00
2023-05-10T10:18:18.517Z,50.12
2023-05-10T10:20:47.164Z,50.38
2023-05-10T10:23:16.666Z,51.92
2023-05-10T10:25:48.819Z,50.56
2023-05-10T10:28:42.543Z,50.65
2023-05-10T10:31:43.248Z,50.96
2023-05-10T10:34:18.344Z,49.03
2023-05-10T10:36:48.940Z,50.51
2023-05-10T10:39:17.049Z,50.93
2023-05-10T10:41:58.599Z,51.51
2023-05-10T10:44:37.731Z,53.11
2023-05-10T10:47:24.126Z,55.45
2023-05-10T10:50:07.016Z,54.95
2023-05-10T10:52:39.327Z,54.54
2023-05-10T10:55:12.780Z,55.81
2023-05-10T10:57:53.160Z,55.94
2023-05-10T11:00:22.215Z,55.87
2023-05-10T11:02:54.970Z,53.64
2023-05-10T11:05:33.800Z,54.62
2023-05-10T11:08:07.603Z,54.81
2023-05-10T11:10:36.161Z,55.80
2023-05-10T11:13:05.080Z,58.30
2023-05-10T11:15:35.052Z,57.30
2023-05-10T11:18:20.344Z,53.78
2023-05-10T11:21:04.377Z,54.76
2023-05-10T11:23:34.153Z,53.43
2023-05-10T11:26:02.578Z,50.34
2023-05-10T11:28:30.102Z,50.89
2023-05-10T11:30:58.475Z,50.96
2023-05-10T11:33:26.024Z,50.78
2023-05-10T11:35:53.490Z,49.49
2023-05-10T11:38:21.012Z,49.85
2023-05-10T11:40:48.550Z,49.04
2023-05-10T11:43:16.255Z,49.70
2023-05-10T11:45:46.988Z,47.02
2023-05-10T11:48:14.535Z,47.89
2023-05-10T11:50:42.108Z,46.00
2023-05-10T11:53:09.602Z,47.49
2023-05-10T11:55:37.106Z,47.41
2023-05-10T11:58:04.665Z,48.20
2023-05-10T12:00:33.489Z,48.27
2023-05-10T12:03:02.969Z,48.34
2023-05-10T12:05:35.136Z,48.60
2023-05-10T12:08:16.416Z,48.15
2023-05-10T12:10:44.873Z,46.52
2023-05-10T12:13:16.443Z,48.78
2023-05-10T12:15:44.819Z,48.41
2023-05-10T12:18:15.020Z,47.60
2023-05-10T12:20:43.564Z,48.81
2023-05-10T12:23:12.318Z,48.27
2023-05-10T12:25:40.741Z,47.34
2023-05-10T12:28:10.775Z,45.52
2023-05-10T12:30:39.736Z,44.08
2023-05-10T12:33:19.043Z,44.33
2023-05-10T12:35:52.900Z,44.44
2023-05-10T12:38:44.225Z,43.50
2023-05-10T12:41:15.542Z,45.76
2023-05-10T12:43:43.499Z,43.21
2023-05-10T12:46:14.140Z,44.68
2023-05-10T12:48:44.580Z,44.56
2023-05-10T12:51:18.276Z,44.89
2023-05-10T12:53:49.395Z,45.80
2023-05-10T12:56:17.154Z,46.28
2023-05-10T12:58:49.220Z,46.49
2023-05-10T13:01:17.141Z,45.80
2023-05-10T13:03:44.890Z,45.58
2023-05-10T13:06:14.417Z,46.01
2023-05-10T13:08:41.832Z,45.01
2023-05-10T13:11:09.317Z,44.75
2023-05-10T13:13:37.106Z,46.44
2023-05-10T13:16:04.946Z,46.73
2023-05-10T13:18:32.544Z,43.41
2023-05-10T13:21:00.275Z,44.01
2023-05-10T13:23:27.782Z,44.89
2023-05-10T13:25:55.251Z,46.84
2023-05-10T13:28:22.822Z,44.77
2023-05-10T13:30:50.238Z,47.18
2023-05-10T13:33:17.765Z,47.25
2023-05-10T13:35:46.267Z,46.01
2023-05-10T13:38:15.211Z,45.10
2023-05-10T13:40:42.787Z,44.66
2023-05-10T13:43:10.211Z,44.95
2023-05-10T13:45:37.855Z,45.97
2023-05-10T13:48:05.800Z,44.72
2023-05-10T13:50:33.285Z,43.01
2023-05-10T13:53:01.324Z,43.62
2023-05-10T13:55:29.812Z,42.70
2023-05-10T13:57:57.312Z,46.96
2023-05-10T14:00:24.946Z,45.58
2023-05-10T14:02:52.760Z,45.84
2023-05-10T14:05:25.398Z,43.32
2023-05-10T14:07:54.990Z,44.97
2023-05-10T14:10:22.718Z,44.88
2023-05-10T14:12:51.111Z,44.92
2023-05-10T14:15:19.318Z,44.24
2023-05-10T14:17:46.965Z,44.21
2023-05-10T14:20:14.505Z,42.46
2023-05-10T14:22:42.016Z,41.99
2023-05-10T14:25:10.309Z,41.79
2023-05-10T14:27:39.224Z,42.01
2023-05-10T14:30:07.746Z,44.04
2023-05-10T14:32:37.620Z,41.87
2023-05-10T14:35:07.065Z,43.21
2023-05-10T14:37:35.600Z,41.57
2023-05-10T14:40:05.460Z,42.70
2023-05-10T14:42:33.272Z,42.31
2023-05-10T14:45:00.797Z,42.01
2023-05-10T14:47:28.330Z,41.78
2023-05-10T14:49:55.956Z,41.93
2023-05-10T14:52:23.616Z,41.50
2023-05-10T14:54:51.486Z,41.03
2023-05-10T14:57:19.237Z,40.80
2023-05-10T14:59:46.920Z,42.94
2023-05-10T15:02:14.830Z,41.97
2023-05-10T15:04:42.657Z,43.42
2023-05-10T15:07:10.864Z,42.50
2023-05-10T15:09:38.428Z,42.93
2023-05-10T15:12:06.202Z,42.46
2023-05-10T15:14:34.044Z,42.32
2023-05-10T15:17:01.661Z,42.46
2023-05-10T15:19:30.445Z,41.37
2023-05-10T15:21:57.995Z,41.70
2023-05-10T15:24:25.709Z,43.83
2023-05-10T15:26:53.212Z,44.90
2023-05-10T15:29:21.967Z,46.30
2023-05-10T15:31:50.540Z,45.35
2023-05-10T15:34:19.080Z,44.12
2023-05-10T15:36:47.137Z,44.32
2023-05-10T15:39:14.760Z,44.21
2023-05-10T15:41:42.315Z,44.51
2023-05-10T15:44:09.821Z,46.57
2023-05-10T15:46:38.940Z,48.10
2023-05-10T15:49:07.644Z,48.76
2023-05-10T15:51:36.657Z,48.98
2023-05-10T15:54:08.425Z,48.94
2023-05-10T15:56:36.633Z,49.49
2023-05-10T15:59:06.185Z,50.68
2023-05-10T16:01:33.875Z,50.39
2023-05-10T16:04:02.143Z,50.96
2023-05-10T16:06:29.770Z,49.40
2023-05-10T16:08:58.134Z,50.01
2023-05-10T16:11:26.354Z,49.53
2023-05-10T16:13:54.126Z,49.94
2023-05-10T16:16:24.434Z,50.61
2023-05-10T16:18:53.139Z,49.83
2023-05-10T16:21:20.940Z,50.95
2023-05-10T16:23:48.718Z,51.72
2023-05-10T16:26:16.196Z,51.74
2023-05-10T16:28:44.435Z,52.66
2023-05-10T16:31:13.952Z,53.65
2023-05-10T16:33:41.692Z,53.08
2023-05-10T16:36:10.752Z,53.34
2023-05-10T16:38:40.747Z,53.90
2023-05-10T16:41:08.450Z,52.56
2023-05-10T16:43:39.203Z,54.31
2023-05-10T16:46:28.861Z,54.04
2023-05-10T16:49:00.236Z,55.79
2023-05-10T16:51:31.215Z,55.58
2023-05-10T16:53:59.052Z,55.84
2023-05-10T16:56:28.358Z,55.55
2023-05-10T16:58:56.735Z,56.82
2023-05-10T17:01:27.146Z,57.37
2023-05-10T17:03:55.712Z,57.74
2023-05-10T17:06:23.670Z,58.94
2023-05-10T17:08:51.769Z,60.10
2023-05-10T17:11:21.912Z,59.82
2023-05-10T17:13:52.512Z,61.34
2023-05-10T17:16:21.518Z,61.01
2023-05-10T17:18:51.475Z,60.92
2023-05-10T17:21:19.608Z,60.74
2023-05-10T17:23:47.157Z,60.73
2023-05-10T17:26:15.938Z,60.53
2023-05-10T17:28:43.632Z,60.90
2023-05-10T17:31:11.850Z,60.97
2023-05-10T17:33:39.993Z,60.50
2023-05-10T17:36:08.522Z,61.46
2023-05-10T17:38:42.638Z,60.98
2023-05-10T17:41:15.828Z,62.06
2023-05-10T17:43:44.601Z,63.86
2023-05-10T17:46:13.399Z,62.86
2023-05-10T17:48:44.376Z,64.08
2023-05-10T17:51:13.696Z,65.17
2023-05-10T17:53:42.367Z,65.00
2023-05-10T17:56:11.758Z,65.72
2023-05-10T17:58:42.869Z,65.36
2023-05-10T18:01:17.004Z,65.86
2023-05-10T18:03:47.339Z,66.55
2023-05-10T18:06:16.999Z,67.43
2023-05-10T18:08:53.344Z,68.22
2023-05-10T18:11:24.449Z,68.21
2023-05-10T18:13:56.526Z,67.76
2023-05-10T18:16:24.353Z,68.68
2023-05-10T18:18:52.942Z,69.73
2023-05-10T18:21:23.514Z,70.00
2023-05-10T18:23:53.665Z,70.40
2023-05-10T18:26:22.432Z,71.04
2023-05-10T18:28:55.952Z,71.83
2023-05-10T18:31:24.063Z,73.76
2023-05-10T18:33:52.484Z,74.82
2023-05-10T18:36:20.382Z,75.56
2023-05-10T18:38:52.438Z,74.97
2023-05-10T18:41:20.140Z,75.03
2023-05-10T18:43:48.254Z,75.64
2023-05-10T18:46:16.526Z,73.26
2023-05-10T18:48:50.421Z,71.30
2023-05-10T18:51:19.269Z,69.33
2023-05-10T18:53:49.278Z,69.67
2023-05-10T18:56:19.865Z,69.18
2023-05-10T18:58:48.212Z,68.04
2023-05-10T19:01:20.363Z,67.45
2023-05-10T19:03:49.420Z,66.19
2023-05-10T19:06:17.058Z,67.16
2023-05-10T19:08:45.947Z,65.59
2023-05-10T19:11:13.732Z,66.99
2023-05-10T19:13:46.139Z,66.78
2023-05-10T19:16:24.335Z,65.96
2023-05-10T19:18:54.383Z,65.51
2023-05-10T19:21:25.803Z,64.35
2023-05-10T19:23:57.728Z,65.56
2023-05-10T19:26:27.901Z,66.35
2023-05-10T19:28:59.717Z,65.04
2023-05-10T19:31:28.818Z,65.86
2023-05-10T19:34:00.511Z,64.27
2023-05-10T19:36:28.517Z,64.33
2023-05-10T19:38:57.507Z,63.47
2023-05-10T19:41:27.595Z,62.57
2023-05-10T19:43:56.943Z,63.96
2023-05-10T19:46:26.041Z,62.79
2023-05-10T19:48:53.786Z,63.51
2023-05-10T19:51:22.699Z,64.19
2023-05-10T19:53:50.631Z,63.75
2023-05-10T19:56:18.525Z,63.09
2023-05-10T19:58:47.331Z,62.88
2023-05-10T20:01:15.076Z,62.16
2023-05-10T20:03:42.696Z,61.45
2023-05-10T20:06:12.462Z,60.74
2023-05-10T20:08:40.113Z,60.11
2023-05-10T20:11:08.121Z,57.54
2023-05-10T20:13:35.623Z,57.99
2023-05-10T20:16:05.183Z,57.96
2023-05-10T20:18:32.910Z,57.85
2023-05-10T20:21:01.922Z,57.63
2023-05-10T20:23:29.766Z,58.13
2023-05-10T20:25:58.828Z,57.82
2023-05-10T20:28:27.158Z,58.95
2023-05-10T20:30:56.502Z,59.01
2023-05-10T20:33:24.798Z,60.19
2023-05-10T20:35:52.494Z,61.40
2023-05-10T20:38:20.127Z,62.44
2023-05-10T20:40:49.066Z,62.29
2023-05-10T20:43:16.679Z,63.59
2023-05-10T20:45:44.374Z,62.50
2023-05-10T20:48:13.294Z,64.39
2023-05-10T20:50:44.565Z,64.30
2023-05-10T20:53:12.179Z,65.17
2023-05-10T20:55:39.931Z,64.97
2023-05-10T20:58:07.587Z,65.43
2023-05-10T21:00:35.276Z,63.38
2023-05-10T21:03:04.476Z,63.57
2023-05-10T21:05:32.339Z,63.46
2023-05-10T21:08:01.046Z,64.49
2023-05-10T21:10:30.126Z,65.25
2023-05-10T21:12:57.789Z,64.89
2023-05-10T21:15:26.026Z,63.94
2023-05-10T21:17:54.384Z,63.34
2023-05-10T21:20:23.476Z,64.19
2023-05-10T21:22:51.329Z,65.09
2023-05-10T21:25:19.006Z,65.89
2023-05-10T21:27:47.261Z,65.30
2023-05-10T21:30:15.215Z,66.40
2023-05-10T21:32:42.914Z,67.76
2023-05-10T21:35:10.792Z,68.37
2023-05-10T21:37:38.446Z,69.18
2023-05-10T21:40:06.786Z,69.61
2023-05-10T21:42:34.368Z,70.45
2023-05-10T21:45:02.084Z,69.64
2023-05-10T21:47:29.707Z,69.70
2023-05-10T21:49:57.454Z,70.69
2023-05-10T21:52:25.093Z,71.90
2023-05-10T21:54:52.920Z,72.17
2023-05-10T21:57:21.618Z,73.16
2023-05-10T21:59:49.192Z,72.53
2023-05-10T22:02:16.936Z,72.96
2023-05-10T22:04:44.532Z,73.08
2023-05-10T22:07:12.206Z,74.16
2023-05-10T22:09:39.864Z,74.65
2023-05-10T22:12:07.624Z,75.33
2023-05-10T22:14:35.454Z,75.23
2023-05-10T22:17:03.101Z,75.09
2023-05-10T22:19:30.750Z,75.24
2023-05-10T22:22:00.715Z,75.34
2023-05-10T22:24:28.515Z,75.12
2023-05-10T22:26:56.278Z,75.17
2023-05-10T22:29:24.756Z,76.10
2023-05-10T22:31:52.420Z,75.20
2023-05-10T22:34:20.830Z,76.29
2023-05-10T22:36:49.684Z,75.75
2023-05-10T22:39:20.369Z,76.40
2023-05-10T22:41:47.890Z,75.96
2023-05-10T22:44:15.489Z,75.45
2023-05-10T22:46:43.033Z,75.20
2023-05-10T22:49:11.196Z,76.25
2023-05-10T22:51:38.728Z,76.76
2023-05-10T22:54:07.272Z,77.55
2023-05-10T22:56:35.397Z,77.94
2023-05-10T22:59:03.137Z,79.14
2023-05-10T23:01:30.783Z,79.35
2023-05-10T23:03:58.446Z,79.65
2023-05-10T23:06:27.846Z,78.93
2023-05-10T23:08:56.197Z,78.94
2023-05-10T23:11:23.844Z,79.69
2023-05-10T23:13:52.005Z,78.93
2023-05-10T23:16:19.638Z,79.25
2023-05-10T23:18:47.252Z,79.88
2023-05-10T23:21:14.869Z,80.35
2023-05-10T23:23:42.488Z,80.62
2023-05-10T23:26:10.194Z,80.76
2023-05-10T23:28:37.972Z,80.85
2023-05-10T23:31:05.618Z,80.60
2023-05-10T23:33:36.003Z,79.61
2023-05-10T23:36:03.688Z,80.82
2023-05-10T23:38:31.213Z,81.67
2023-05-10T23:40:58.812Z,83.00
2023-05-10T23:43:26.497Z,83.77
2023-05-10T23:45:56.756Z,83.53
2023-05-10T23:48:24.762Z,83.86
2023-05-10T23:50:52.445Z,84.43
2023-05-10T23:53:20.132Z,84.81
2023-05-10T23:55:47.636Z,84.67
2023-05-10T23:58:15.441Z,84.24
